Awendaw, South Carolina
Current Conditions -  °F | °C
As of 4:15 PM on Wednesday 26 Nov 2014 (Local Time) from KGGE Reporting Station
Overcast Overcast  
Wind Chill: 52°   Ceiling: 1400
Heat Index: 52°   Visibility: 10mi
Dew Point: 50°   Wind: 8mph
Humidity: 94%   Direction: 280°W
Pressure: 30.04"   Gusts: NA
Location:  33.04°N, 79.61°W
Report Text: KGGE 262115Z AUTO 28007KT 10SM BKN014 OVC019 11/10 A3004 RMK AO2
Loading
Personal Weather Stations






























Interactive Weather Map New forecast layout! Learn more

10-Day Weather Forecast

Advertisements
Track Severe Weather on mobile